Wednesday, October 22, 2014
09:39 UTC
  |  Log In   |  Register Free
Airport Search:

Henry Post Aaf (Fort Sill) Airport
(KFSI)

Henry Post Aaf (Fort Sill) Airport Diagram
No Airport Diagram Available

FAA data valid effective September 18, 2014 - November 13, 2014 (unless otherwise noted).

 
 
 
 
 
 
 
 
 
 
 
 
 
 

Current Aviation Weather for Henry Post Aaf (Fort Sill) Airport (KFSI)

The most recent METAR observation for KFSI was updated at: 0909
METAR Summary (Translated METAR)
KFSI
220858Z AUTO 10002KT 10SM CLR 14/13 A3006 RMK AO2 SLP173 T01430125 52005
KLAW
220853Z AUTO 09003KT 10SM CLR 14/12 A3007 RMK AO2 SLP176 T01390117 51005
(5.0 nm SW from KFSI)
KDUC
220855Z AUTO 00000KT 10SM CLR 15/15 A3008 RMK AO2
(24.4 nm SE from KFSI)
TAF Summary (Translated TAF)
KFSI
2202/2303 18009KT 9999 SKC QNH2998INS BECMG 2220/2221 18009KT 9999 BKN090 QNH3006INS TX28/2221Z TN11/2212Z AMD 220259 LAST NO AMDS AFT 2202 NEXT 2213
KLAW
(5.0 nm SW from KFSI)
220520Z 2206/2306 15004KT P6SM SKC FM221600 17011KT P6SM SCT040 BKN120 FM222300 15005KT P6SM SCT040 OVC100 PROB30 2302/2306 5SM -SHRA OVC040
  Airport Weather Conditions for KFSI

 Current Weather at FSI
58° F
Fair
East winds at 2.3 mph
FSI NOAA Radar

Pressure: 30.06 in
Humidity: 89%
Wind: East at 2.3 MPH (2 KT)
Dew Point: 54.5°F
Visibility: 10.00 mi


Airport Weather Forecast for KFSI

Translated METAR and TAF for KFSI
Translated METAR for KFSI (0934 UTC 22 October 2014)
found at http://aviationweather.gov/adds/metars/
 
METAR text: KFSI 220858Z AUTO 10002KT 10SM CLR 14/13 A3006 RMK AO2 SLP173 T01430125 52005
Conditions at: KFSI (FORT SILL , OK, US) observed 0858 UTC 22 October 2014
Temperature: 14.3°C (58°F)
Dewpoint: 12.5°C (54°F) [RH = 89%]
Pressure (altimeter): 30.06 inches Hg (1018.0 mb)
[Sea-level pressure: 1017.3 mb]
Winds: from the E (100 degrees) at 2 MPH (2 knots; 1.0 m/s)
Visibility: 10 or more miles (16+ km)
Ceiling: at least 12,000 feet AGL
Clouds: sky clear below 12,000 feet AGL
Weather: automated observation with no human augmentation;
there may or may not be significant weather present at this time
Translated TAF for KFSI
Forecast for: KFSI (FORT SILL , OK, US)
TAF Text: TAF AMD KFSI 2202/2303 18009KT 9999 SKC QNH2998INS
Forecast period: 0200 to 2000 UTC 22 October 2014
Forecast type: FROM: standard forecast or significant change
Winds: from the S (180 degrees) at 10 MPH (9 knots; 4.7 m/s)
Visibility: 6 or more miles (10+ km)
Clouds: clear skies
Weather: no significant weather forecast for this period
TAF Text: BECMG 2220/2221 18009KT 9999 BKN090 QNH3006INS TX28/2221Z TN11/2212Z AMD 220259 LAST NO AMDS AFT 2202 NEXT 2213
Forecast period: 2000 UTC 22 October 2014 to 0300 UTC 23 October 2014
Forecast type: BECOMING: Conditions expected to become as follows by 2100 UTC 22 October 2014
Winds: from the S (180 degrees) at 10 MPH (9 knots; 4.7 m/s)
Visibility: 6 or more miles (10+ km)
Ceiling: 9000 feet AGL
Clouds: broken clouds at 9000 feet AGL
Weather: no significant weather forecast for this period

Find All Airport Services Find A Hotel Find A Rental Car Find A Golf Course Find A Restaurant $100 Hamburger



FBO's on the Field
FBO Company Facility Photos Services Transportation Aviation Fuel Prices: Prices include tax
Catering Weather Repair Courtesy Rental Type 100LL JetA JetA+ MOGAS 8087
 
Add another FBO Facility Photos Catering Weather Repair Courtesy Rental Type 100LL JetA JetA+ MOGAS 8087
Services Transportation Aviation Fuel Prices: Prices include tax
There are no FBO's currently reporting fuel at FSI. List your FBO now


model-print
model-print
model-print
model-print